VOZ1487 YPPH-YBRM
Flight info
| Callsign | VOZ1487 |
|---|---|
| Flight time | 2h 11m |
| Altitude | 39000 |
| Route | PH Y31 BRM |
| Aircraft | B737/M-SDE2E3FGHIRWXY/LB1 |
Departure
| Time | 2026-05-06 07:11 |
|---|---|
| Airport | Perth International Airport (YPPH) |
Arrival
| Time | 2026-05-06 09:22 |
|---|---|
| Airport | Broome International Airport (YBRM) |
| Time | Latitude | Longitude | Altitude | Speed | Heading |
|---|---|---|---|---|---|
| 2026-05-06 06:46 | -31.94007 | 115.96980 | 67 ft | 0 kts | 204° |
| 2026-05-06 07:01 | -31.94002 | 115.96982 | 62 ft | 4 kts | 204° |
| 2026-05-06 07:01 | -31.93977 | 115.96995 | 57 ft | 4 kts | 204° |
| 2026-05-06 07:02 | -31.93956 | 115.97006 | 58 ft | 4 kts | 207° |
| 2026-05-06 07:02 | -31.93937 | 115.97024 | 65 ft | 4 kts | 250° |
| 2026-05-06 07:02 | -31.93935 | 115.97052 | 67 ft | 2 kts | 281° |
| 2026-05-06 07:02 | -31.93936 | 115.97059 | 67 ft | 0 kts | 281° |
| 2026-05-06 07:05 | -31.93936 | 115.97056 | 67 ft | 1 kts | 281° |
| 2026-05-06 07:06 | -31.93928 | 115.97014 | 60 ft | 9 kts | 283° |
| 2026-05-06 07:06 | -31.93920 | 115.96916 | 61 ft | 14 kts | 250° |
| 2026-05-06 07:06 | -31.94004 | 115.96865 | 63 ft | 14 kts | 194° |
| 2026-05-06 07:06 | -31.94094 | 115.96839 | 63 ft | 13 kts | 194° |
| 2026-05-06 07:07 | -31.94184 | 115.96813 | 60 ft | 14 kts | 194° |
| 2026-05-06 07:07 | -31.94287 | 115.96783 | 62 ft | 17 kts | 194° |
| 2026-05-06 07:07 | -31.94408 | 115.96747 | 63 ft | 18 kts | 194° |
| 2026-05-06 07:07 | -31.94507 | 115.96696 | 62 ft | 14 kts | 241° |
| 2026-05-06 07:08 | -31.94493 | 115.96591 | 65 ft | 13 kts | 284° |
| 2026-05-06 07:08 | -31.94472 | 115.96489 | 63 ft | 13 kts | 284° |
| 2026-05-06 07:08 | -31.94451 | 115.96390 | 67 ft | 13 kts | 284° |
| 2026-05-06 07:08 | -31.94427 | 115.96278 | 64 ft | 16 kts | 284° |
| 2026-05-06 07:09 | -31.94390 | 115.96146 | 67 ft | 18 kts | 310° |
| 2026-05-06 07:09 | -31.94276 | 115.96062 | 64 ft | 20 kts | 328° |
| 2026-05-06 07:09 | -31.94151 | 115.95972 | 63 ft | 22 kts | 328° |
| 2026-05-06 07:09 | -31.94070 | 115.95973 | 63 ft | 13 kts | 58° |
| 2026-05-06 07:10 | -31.94060 | 115.95992 | 66 ft | 11 kts | 58° |
| 2026-05-06 07:10 | -31.93874 | 115.96353 | 68 ft | 91 kts | 59° |
| 2026-05-06 07:10 | -31.93425 | 115.97227 | 75 ft | 155 kts | 59° |
| 2026-05-06 07:10 | -31.92810 | 115.98374 | 584 ft | 169 kts | 60° |
| 2026-05-06 07:11 | -31.92185 | 115.99530 | 1444 ft | 163 kts | 60° |
| 2026-05-06 07:11 | -31.91581 | 116.00695 | 2172 ft | 169 kts | 61° |
| 2026-05-06 07:11 | -31.90959 | 116.01904 | 2944 ft | 187 kts | 61° |
| 2026-05-06 07:11 | -31.90242 | 116.03349 | 3225 ft | 220 kts | 62° |
| 2026-05-06 07:12 | -31.89422 | 116.05018 | 3638 ft | 249 kts | 61° |
| 2026-05-06 07:12 | -31.88537 | 116.06777 | 4680 ft | 253 kts | 61° |
| 2026-05-06 07:12 | -31.87628 | 116.08560 | 5745 ft | 256 kts | 60° |
| 2026-05-06 07:12 | -31.86693 | 116.10383 | 6693 ft | 264 kts | 62° |
| 2026-05-06 07:13 | -31.85760 | 116.12276 | 7594 ft | 270 kts | 67° |
| 2026-05-06 07:13 | -31.85185 | 116.14388 | 8546 ft | 272 kts | 78° |
| 2026-05-06 07:13 | -31.84761 | 116.16569 | 9539 ft | 276 kts | 79° |
| 2026-05-06 07:13 | -31.84350 | 116.18782 | 10339 ft | 286 kts | 79° |
| 2026-05-06 07:14 | -31.83909 | 116.21167 | 10693 ft | 309 kts | 80° |
| 2026-05-06 07:14 | -31.83436 | 116.23691 | 11355 ft | 320 kts | 79° |
| 2026-05-06 07:14 | -31.82946 | 116.26269 | 12201 ft | 325 kts | 79° |
| 2026-05-06 07:14 | -31.82445 | 116.28880 | 13085 ft | 330 kts | 80° |
| 2026-05-06 07:15 | -31.81933 | 116.31532 | 13909 ft | 336 kts | 80° |
| 2026-05-06 07:15 | -31.81409 | 116.34237 | 14733 ft | 341 kts | 80° |
| 2026-05-06 07:15 | -31.80879 | 116.36964 | 15608 ft | 344 kts | 79° |
| 2026-05-06 07:15 | -31.80341 | 116.39722 | 16470 ft | 347 kts | 80° |
| 2026-05-06 07:16 | -31.79798 | 116.42506 | 17351 ft | 351 kts | 79° |
| 2026-05-06 07:16 | -31.79247 | 116.45324 | 18186 ft | 356 kts | 79° |
| 2026-05-06 07:16 | -31.78689 | 116.48180 | 18986 ft | 360 kts | 79° |
| 2026-05-06 07:16 | -31.78124 | 116.51068 | 19667 ft | 366 kts | 79° |
| 2026-05-06 07:17 | -31.77550 | 116.54000 | 20359 ft | 371 kts | 79° |
| 2026-05-06 07:17 | -31.76973 | 116.56942 | 21041 ft | 376 kts | 79° |
| 2026-05-06 07:17 | -31.76379 | 116.59964 | 21699 ft | 382 kts | 79° |
| 2026-05-06 07:17 | -31.75515 | 116.62948 | 22328 ft | 392 kts | 62° |
| 2026-05-06 07:18 | -31.73847 | 116.65514 | 23010 ft | 399 kts | 49° |
| 2026-05-06 07:18 | -31.71916 | 116.67878 | 23727 ft | 403 kts | 46° |
| 2026-05-06 07:18 | -31.69927 | 116.70240 | 24279 ft | 409 kts | 46° |
| 2026-05-06 07:18 | -31.67922 | 116.72631 | 24867 ft | 412 kts | 46° |
| 2026-05-06 07:19 | -31.65919 | 116.75047 | 25476 ft | 414 kts | 47° |
| 2026-05-06 07:19 | -31.63913 | 116.77492 | 26073 ft | 417 kts | 47° |
| 2026-05-06 07:19 | -31.61903 | 116.79956 | 26638 ft | 420 kts | 47° |
| 2026-05-06 07:19 | -31.59875 | 116.82443 | 27194 ft | 424 kts | 47° |
| 2026-05-06 07:20 | -31.57817 | 116.84947 | 27743 ft | 427 kts | 45° |
| 2026-05-06 07:20 | -31.55543 | 116.87143 | 28258 ft | 432 kts | 35° |
| 2026-05-06 07:20 | -31.52934 | 116.88912 | 28786 ft | 436 kts | 25° |
| 2026-05-06 07:20 | -31.50087 | 116.90209 | 29303 ft | 439 kts | 20° |
| 2026-05-06 07:21 | -31.47186 | 116.91386 | 29791 ft | 443 kts | 19° |
| 2026-05-06 07:21 | -31.44254 | 116.92546 | 30254 ft | 446 kts | 19° |
| 2026-05-06 07:21 | -31.41298 | 116.93718 | 30675 ft | 449 kts | 19° |
| 2026-05-06 07:21 | -31.38333 | 116.94909 | 31064 ft | 452 kts | 19° |
| 2026-05-06 07:22 | -31.35350 | 116.96120 | 31436 ft | 455 kts | 19° |
| 2026-05-06 07:22 | -31.32354 | 116.97348 | 31807 ft | 457 kts | 19° |
| 2026-05-06 07:22 | -31.29348 | 116.98584 | 32174 ft | 459 kts | 19° |
| 2026-05-06 07:22 | -31.26323 | 116.99831 | 32523 ft | 461 kts | 19° |
| 2026-05-06 07:23 | -31.23295 | 117.01078 | 32920 ft | 462 kts | 19° |
| 2026-05-06 07:23 | -31.20268 | 117.02324 | 33387 ft | 461 kts | 19° |
| 2026-05-06 07:23 | -31.17254 | 117.03563 | 33869 ft | 459 kts | 19° |
| 2026-05-06 07:23 | -31.14244 | 117.04799 | 34307 ft | 458 kts | 19° |
| 2026-05-06 07:24 | -31.11227 | 117.06037 | 34632 ft | 458 kts | 19° |
| 2026-05-06 07:24 | -31.08217 | 117.07270 | 34954 ft | 458 kts | 19° |
| 2026-05-06 07:24 | -31.05211 | 117.08502 | 35292 ft | 458 kts | 19° |
| 2026-05-06 07:24 | -31.02206 | 117.09732 | 35615 ft | 458 kts | 18° |
| 2026-05-06 07:25 | -30.99199 | 117.10963 | 35903 ft | 458 kts | 18° |
| 2026-05-06 07:25 | -30.96224 | 117.12179 | 36204 ft | 458 kts | 18° |
| 2026-05-06 07:25 | -30.93218 | 117.13408 | 36528 ft | 457 kts | 18° |
| 2026-05-06 07:25 | -30.90215 | 117.14635 | 36817 ft | 457 kts | 18° |
| 2026-05-06 07:26 | -30.87208 | 117.15861 | 37072 ft | 458 kts | 18° |
| 2026-05-06 07:26 | -30.84202 | 117.17097 | 37362 ft | 458 kts | 19° |
| 2026-05-06 07:26 | -30.81224 | 117.18417 | 37662 ft | 458 kts | 20° |
| 2026-05-06 07:26 | -30.78261 | 117.19793 | 37913 ft | 458 kts | 21° |
| 2026-05-06 07:27 | -30.75300 | 117.21188 | 38155 ft | 459 kts | 21° |
| 2026-05-06 07:27 | -30.72335 | 117.22585 | 38428 ft | 459 kts | 20° |
| 2026-05-06 07:27 | -30.69380 | 117.23968 | 38693 ft | 458 kts | 20° |
| 2026-05-06 07:27 | -30.66420 | 117.25344 | 38935 ft | 459 kts | 20° |
| 2026-05-06 07:28 | -30.63453 | 117.26715 | 39119 ft | 459 kts | 20° |
| 2026-05-06 07:28 | -30.60482 | 117.28083 | 39295 ft | 460 kts | 20° |
| 2026-05-06 07:28 | -30.54493 | 117.30831 | 39343 ft | 465 kts | 20° |
| 2026-05-06 07:29 | -30.48485 | 117.33586 | 39341 ft | 461 kts | 20° |
| 2026-05-06 07:29 | -30.42550 | 117.36305 | 39333 ft | 457 kts | 20° |
| 2026-05-06 07:30 | -30.36656 | 117.39002 | 39335 ft | 455 kts | 20° |
| 2026-05-06 07:30 | -30.30817 | 117.41670 | 39332 ft | 453 kts | 20° |
| 2026-05-06 07:31 | -30.24947 | 117.44348 | 39334 ft | 453 kts | 20° |
| 2026-05-06 07:31 | -30.19083 | 117.47020 | 39331 ft | 454 kts | 20° |
| 2026-05-06 07:32 | -30.13196 | 117.49699 | 39335 ft | 456 kts | 20° |
| 2026-05-06 07:32 | -30.07280 | 117.52389 | 39316 ft | 458 kts | 19° |
| 2026-05-06 07:33 | -30.01337 | 117.55087 | 39325 ft | 459 kts | 19° |
| 2026-05-06 07:33 | -29.95413 | 117.57773 | 39323 ft | 461 kts | 19° |
| 2026-05-06 07:34 | -29.89419 | 117.60488 | 39322 ft | 462 kts | 19° |
| 2026-05-06 07:34 | -29.83423 | 117.63201 | 39317 ft | 463 kts | 19° |
| 2026-05-06 07:35 | -29.77415 | 117.65914 | 39313 ft | 464 kts | 19° |
| 2026-05-06 07:35 | -29.71402 | 117.68628 | 39312 ft | 463 kts | 19° |
| 2026-05-06 07:36 | -29.65400 | 117.71334 | 39315 ft | 463 kts | 19° |
| 2026-05-06 07:36 | -29.59445 | 117.74016 | 39311 ft | 462 kts | 19° |
| 2026-05-06 07:37 | -29.53461 | 117.76708 | 39306 ft | 461 kts | 19° |
| 2026-05-06 07:37 | -29.47488 | 117.79391 | 39299 ft | 460 kts | 19° |
| 2026-05-06 07:38 | -29.41529 | 117.82065 | 39305 ft | 459 kts | 19° |
| 2026-05-06 07:38 | -29.35573 | 117.84733 | 39304 ft | 459 kts | 19° |
| 2026-05-06 07:39 | -29.29622 | 117.87396 | 39305 ft | 459 kts | 19° |
| 2026-05-06 07:39 | -29.23672 | 117.90056 | 39302 ft | 459 kts | 19° |
| 2026-05-06 07:40 | -29.17753 | 117.92698 | 39290 ft | 459 kts | 18° |
| 2026-05-06 07:40 | -29.11782 | 117.95360 | 39296 ft | 461 kts | 18° |
| 2026-05-06 07:41 | -29.05806 | 117.98021 | 39304 ft | 462 kts | 18° |
| 2026-05-06 07:41 | -28.99809 | 118.00688 | 39293 ft | 463 kts | 18° |
| 2026-05-06 07:42 | -28.93797 | 118.03358 | 39279 ft | 464 kts | 18° |
| 2026-05-06 07:42 | -28.87767 | 118.06034 | 39290 ft | 465 kts | 18° |
| 2026-05-06 07:43 | -28.81760 | 118.08695 | 39287 ft | 466 kts | 18° |
| 2026-05-06 07:43 | -28.75713 | 118.11371 | 39281 ft | 466 kts | 18° |
| 2026-05-06 07:44 | -28.69653 | 118.14050 | 39282 ft | 467 kts | 18° |
| 2026-05-06 07:44 | -28.63587 | 118.16728 | 39266 ft | 467 kts | 17° |
| 2026-05-06 07:45 | -28.57529 | 118.19399 | 39277 ft | 467 kts | 17° |
| 2026-05-06 07:45 | -28.51468 | 118.22067 | 39277 ft | 467 kts | 17° |
| 2026-05-06 07:46 | -28.45404 | 118.24734 | 39275 ft | 467 kts | 17° |
| 2026-05-06 07:46 | -28.39385 | 118.27378 | 39273 ft | 467 kts | 17° |
| 2026-05-06 07:47 | -28.33316 | 118.30041 | 39258 ft | 467 kts | 17° |
| 2026-05-06 07:47 | -28.27240 | 118.32703 | 39270 ft | 467 kts | 17° |
| 2026-05-06 07:48 | -28.21168 | 118.35361 | 39265 ft | 468 kts | 17° |
| 2026-05-06 07:48 | -28.15090 | 118.38018 | 39269 ft | 468 kts | 17° |
| 2026-05-06 07:49 | -28.09004 | 118.40675 | 39263 ft | 469 kts | 17° |
| 2026-05-06 07:49 | -28.02911 | 118.43333 | 39254 ft | 469 kts | 16° |
| 2026-05-06 07:50 | -27.96819 | 118.45986 | 39256 ft | 469 kts | 16° |
| 2026-05-06 07:50 | -27.90717 | 118.48638 | 39251 ft | 470 kts | 16° |
| 2026-05-06 07:51 | -27.84651 | 118.51271 | 39250 ft | 470 kts | 16° |
| 2026-05-06 07:51 | -27.78537 | 118.53923 | 39232 ft | 470 kts | 16° |
| 2026-05-06 07:52 | -27.72427 | 118.56571 | 39241 ft | 470 kts | 16° |
| 2026-05-06 07:52 | -27.67343 | 118.58771 | 39244 ft | 471 kts | 16° |
| 2026-05-06 07:53 | -27.61229 | 118.61415 | 39247 ft | 471 kts | 16° |
| 2026-05-06 07:53 | -27.55095 | 118.64063 | 39241 ft | 471 kts | 16° |
| 2026-05-06 07:54 | -27.48966 | 118.66707 | 39246 ft | 472 kts | 16° |
| 2026-05-06 07:54 | -27.42831 | 118.69350 | 39240 ft | 472 kts | 16° |
| 2026-05-06 07:55 | -27.36731 | 118.71974 | 39238 ft | 472 kts | 16° |
| 2026-05-06 07:55 | -27.30603 | 118.74608 | 39234 ft | 472 kts | 16° |
| 2026-05-06 07:56 | -27.24472 | 118.77240 | 39234 ft | 471 kts | 16° |
| 2026-05-06 07:56 | -27.18344 | 118.79868 | 39211 ft | 471 kts | 15° |
| 2026-05-06 07:57 | -27.12226 | 118.82488 | 39228 ft | 470 kts | 15° |
| 2026-05-06 07:57 | -27.06116 | 118.85101 | 39221 ft | 470 kts | 15° |
| 2026-05-06 07:58 | -26.99989 | 118.87719 | 39223 ft | 470 kts | 15° |
| 2026-05-06 07:58 | -26.93910 | 118.90314 | 39222 ft | 471 kts | 15° |
| 2026-05-06 07:59 | -26.87783 | 118.92926 | 39216 ft | 471 kts | 15° |
| 2026-05-06 07:59 | -26.81656 | 118.95535 | 39215 ft | 471 kts | 15° |
| 2026-05-06 08:00 | -26.75521 | 118.98145 | 39217 ft | 471 kts | 15° |
| 2026-05-06 08:00 | -26.69387 | 119.00750 | 39213 ft | 472 kts | 15° |
| 2026-05-06 08:01 | -26.63246 | 119.03356 | 39212 ft | 472 kts | 15° |
| 2026-05-06 08:01 | -26.57143 | 119.05944 | 39195 ft | 472 kts | 15° |
| 2026-05-06 08:02 | -26.51006 | 119.08544 | 39206 ft | 472 kts | 15° |
| 2026-05-06 08:02 | -26.44856 | 119.11147 | 39198 ft | 472 kts | 15° |
| 2026-05-06 08:03 | -26.38708 | 119.13745 | 39202 ft | 472 kts | 15° |
| 2026-05-06 08:03 | -26.32558 | 119.16342 | 39174 ft | 473 kts | 15° |
| 2026-05-06 08:04 | -26.26402 | 119.18938 | 39185 ft | 473 kts | 15° |
| 2026-05-06 08:04 | -26.20250 | 119.21529 | 39190 ft | 473 kts | 14° |
| 2026-05-06 08:05 | -26.14091 | 119.24121 | 39184 ft | 473 kts | 14° |
| 2026-05-06 08:05 | -26.07963 | 119.26696 | 39192 ft | 473 kts | 14° |
| 2026-05-06 08:06 | -26.01794 | 119.29286 | 39159 ft | 473 kts | 14° |
| 2026-05-06 08:06 | -25.95628 | 119.31872 | 39177 ft | 473 kts | 14° |
| 2026-05-06 08:07 | -25.89471 | 119.34451 | 39177 ft | 473 kts | 14° |
| 2026-05-06 08:07 | -25.83311 | 119.37028 | 39176 ft | 474 kts | 14° |
| 2026-05-06 08:08 | -25.77141 | 119.39606 | 39168 ft | 474 kts | 14° |
| 2026-05-06 08:08 | -25.70999 | 119.42171 | 39153 ft | 474 kts | 14° |
| 2026-05-06 08:09 | -25.64829 | 119.44744 | 39160 ft | 474 kts | 14° |
| 2026-05-06 08:09 | -25.58655 | 119.47315 | 39165 ft | 474 kts | 14° |
| 2026-05-06 08:10 | -25.52477 | 119.49886 | 39161 ft | 474 kts | 14° |
| 2026-05-06 08:10 | -25.46298 | 119.52454 | 39161 ft | 474 kts | 14° |
| 2026-05-06 08:11 | -25.40115 | 119.55021 | 39144 ft | 474 kts | 14° |
| 2026-05-06 08:11 | -25.33941 | 119.57582 | 39153 ft | 474 kts | 14° |
| 2026-05-06 08:12 | -25.27771 | 119.60138 | 39149 ft | 473 kts | 14° |
| 2026-05-06 08:12 | -25.21598 | 119.62693 | 39150 ft | 473 kts | 14° |
| 2026-05-06 08:13 | -25.15460 | 119.65230 | 39146 ft | 473 kts | 14° |
| 2026-05-06 08:13 | -25.09295 | 119.67777 | 39144 ft | 472 kts | 14° |
| 2026-05-06 08:14 | -25.03135 | 119.70318 | 39126 ft | 472 kts | 14° |
| 2026-05-06 08:14 | -24.96968 | 119.72859 | 39136 ft | 472 kts | 14° |
| 2026-05-06 08:15 | -24.90809 | 119.75394 | 39133 ft | 472 kts | 13° |
| 2026-05-06 08:15 | -24.84685 | 119.77906 | 39128 ft | 472 kts | 13° |
| 2026-05-06 08:16 | -24.78526 | 119.80429 | 39121 ft | 472 kts | 13° |
| 2026-05-06 08:16 | -24.72367 | 119.82951 | 39123 ft | 472 kts | 13° |
| 2026-05-06 08:17 | -24.66204 | 119.85472 | 39125 ft | 472 kts | 13° |
| 2026-05-06 08:17 | -24.60041 | 119.87991 | 39125 ft | 472 kts | 13° |
| 2026-05-06 08:18 | -24.53871 | 119.90510 | 39123 ft | 472 kts | 13° |
| 2026-05-06 08:18 | -24.47703 | 119.93025 | 39118 ft | 473 kts | 13° |
| 2026-05-06 08:19 | -24.41539 | 119.95537 | 39119 ft | 473 kts | 13° |
| 2026-05-06 08:19 | -24.35363 | 119.98050 | 39112 ft | 473 kts | 13° |
| 2026-05-06 08:20 | -24.29228 | 120.00545 | 39117 ft | 473 kts | 13° |
| 2026-05-06 08:20 | -24.23055 | 120.03052 | 39085 ft | 473 kts | 13° |
| 2026-05-06 08:21 | -24.16881 | 120.05557 | 39101 ft | 472 kts | 13° |
| 2026-05-06 08:21 | -24.10719 | 120.08054 | 39105 ft | 472 kts | 13° |
| 2026-05-06 08:22 | -24.04545 | 120.10554 | 39106 ft | 473 kts | 13° |
| 2026-05-06 08:22 | -23.98367 | 120.13053 | 39096 ft | 473 kts | 13° |
| 2026-05-06 08:23 | -23.92243 | 120.15528 | 39081 ft | 472 kts | 12° |
| 2026-05-06 08:23 | -23.86078 | 120.18017 | 39087 ft | 472 kts | 12° |
| 2026-05-06 08:24 | -23.79906 | 120.20505 | 39093 ft | 472 kts | 12° |
| 2026-05-06 08:24 | -23.73735 | 120.22991 | 39083 ft | 472 kts | 12° |
| 2026-05-06 08:25 | -23.67564 | 120.25475 | 39089 ft | 473 kts | 12° |
| 2026-05-06 08:25 | -23.61390 | 120.27958 | 39049 ft | 473 kts | 12° |
| 2026-05-06 08:26 | -23.55233 | 120.30504 | 39071 ft | 475 kts | 14° |
| 2026-05-06 08:26 | -23.49118 | 120.33267 | 39077 ft | 476 kts | 14° |
| 2026-05-06 08:27 | -23.43007 | 120.36059 | 39074 ft | 477 kts | 14° |
| 2026-05-06 08:27 | -23.36914 | 120.38813 | 39072 ft | 477 kts | 14° |
| 2026-05-06 08:28 | -23.30776 | 120.41564 | 39045 ft | 477 kts | 13° |
| 2026-05-06 08:28 | -23.24637 | 120.44308 | 39056 ft | 477 kts | 13° |
| 2026-05-06 08:29 | -23.18494 | 120.47050 | 39064 ft | 477 kts | 13° |
| 2026-05-06 08:29 | -23.12354 | 120.49790 | 39059 ft | 477 kts | 13° |
| 2026-05-06 08:30 | -23.06248 | 120.52512 | 39060 ft | 477 kts | 13° |
| 2026-05-06 08:30 | -23.00103 | 120.55249 | 39030 ft | 477 kts | 13° |
| 2026-05-06 08:31 | -22.93960 | 120.57983 | 39051 ft | 477 kts | 13° |
| 2026-05-06 08:31 | -22.87821 | 120.60712 | 39050 ft | 477 kts | 13° |
| 2026-05-06 08:32 | -22.81693 | 120.63432 | 39051 ft | 477 kts | 13° |
| 2026-05-06 08:32 | -22.75548 | 120.66158 | 39047 ft | 477 kts | 13° |
| 2026-05-06 08:33 | -22.69408 | 120.68880 | 39014 ft | 477 kts | 13° |
| 2026-05-06 08:33 | -22.63311 | 120.71580 | 39031 ft | 476 kts | 13° |
| 2026-05-06 08:34 | -22.54104 | 120.75651 | 39045 ft | 477 kts | 13° |
| 2026-05-06 08:35 | -22.47953 | 120.78367 | 39035 ft | 477 kts | 13° |
| 2026-05-06 08:35 | -22.41806 | 120.81080 | 39036 ft | 477 kts | 13° |
| 2026-05-06 08:36 | -22.35655 | 120.83793 | 39033 ft | 477 kts | 12° |
| 2026-05-06 08:36 | -22.29499 | 120.86504 | 39031 ft | 477 kts | 12° |
| 2026-05-06 08:37 | -22.23350 | 120.89209 | 39034 ft | 478 kts | 12° |
| 2026-05-06 08:37 | -22.17178 | 120.91922 | 39025 ft | 479 kts | 12° |
| 2026-05-06 08:38 | -22.11008 | 120.94632 | 39020 ft | 479 kts | 12° |
| 2026-05-06 08:38 | -22.04882 | 120.97321 | 39017 ft | 478 kts | 12° |
| 2026-05-06 08:39 | -21.98713 | 121.00025 | 39011 ft | 478 kts | 12° |
| 2026-05-06 08:39 | -21.92550 | 121.02724 | 39010 ft | 478 kts | 12° |
| 2026-05-06 08:40 | -21.86372 | 121.05427 | 39014 ft | 478 kts | 12° |
| 2026-05-06 08:40 | -21.81252 | 121.07665 | 39006 ft | 478 kts | 12° |
| 2026-05-06 08:41 | -21.74068 | 121.10803 | 38991 ft | 478 kts | 11° |
| 2026-05-06 08:41 | -21.67908 | 121.13492 | 38997 ft | 478 kts | 11° |
| 2026-05-06 08:42 | -21.62749 | 121.15741 | 39003 ft | 478 kts | 11° |
| 2026-05-06 08:42 | -21.56579 | 121.18428 | 39002 ft | 478 kts | 11° |
| 2026-05-06 08:43 | -21.50452 | 121.21095 | 38994 ft | 478 kts | 11° |
| 2026-05-06 08:43 | -21.44288 | 121.23776 | 38993 ft | 478 kts | 11° |
| 2026-05-06 08:44 | -21.38112 | 121.26459 | 39001 ft | 478 kts | 11° |
| 2026-05-06 08:44 | -21.31945 | 121.29173 | 38989 ft | 479 kts | 12° |
| 2026-05-06 08:45 | -21.25797 | 121.31927 | 38982 ft | 479 kts | 12° |
| 2026-05-06 08:45 | -21.19646 | 121.34680 | 38979 ft | 478 kts | 12° |
| 2026-05-06 08:46 | -21.13496 | 121.37423 | 38950 ft | 477 kts | 11° |
| 2026-05-06 08:46 | -21.07399 | 121.40137 | 38963 ft | 477 kts | 11° |
| 2026-05-06 08:47 | -21.01267 | 121.42862 | 38966 ft | 477 kts | 11° |
| 2026-05-06 08:47 | -20.95138 | 121.45583 | 38966 ft | 477 kts | 11° |
| 2026-05-06 08:48 | -20.89008 | 121.48304 | 38966 ft | 477 kts | 11° |
| 2026-05-06 08:48 | -20.82868 | 121.51027 | 38935 ft | 477 kts | 11° |
| 2026-05-06 08:49 | -20.76742 | 121.53741 | 38948 ft | 477 kts | 11° |
| 2026-05-06 08:49 | -20.70607 | 121.56456 | 38958 ft | 477 kts | 11° |
| 2026-05-06 08:50 | -20.64506 | 121.59154 | 38953 ft | 477 kts | 11° |
| 2026-05-06 08:50 | -20.58369 | 121.61865 | 38949 ft | 478 kts | 11° |
| 2026-05-06 08:51 | -20.52224 | 121.64579 | 38910 ft | 478 kts | 11° |
| 2026-05-06 08:51 | -20.46074 | 121.67292 | 38936 ft | 478 kts | 11° |
| 2026-05-06 08:52 | -20.39924 | 121.70002 | 38939 ft | 479 kts | 11° |
| 2026-05-06 08:52 | -20.33791 | 121.72702 | 38937 ft | 479 kts | 11° |
| 2026-05-06 08:53 | -20.27617 | 121.75419 | 38925 ft | 480 kts | 11° |
| 2026-05-06 08:53 | -20.21434 | 121.78138 | 38881 ft | 480 kts | 11° |
| 2026-05-06 08:54 | -20.15262 | 121.80850 | 38907 ft | 480 kts | 10° |
| 2026-05-06 08:54 | -20.09087 | 121.83557 | 38916 ft | 480 kts | 10° |
| 2026-05-06 08:54 | -20.05982 | 121.84913 | 38626 ft | 485 kts | 10° |
| 2026-05-06 08:55 | -20.02890 | 121.86260 | 38071 ft | 485 kts | 11° |
| 2026-05-06 08:55 | -19.99771 | 121.87625 | 37495 ft | 484 kts | 11° |
| 2026-05-06 08:55 | -19.96661 | 121.88987 | 36916 ft | 482 kts | 11° |
| 2026-05-06 08:55 | -19.93561 | 121.90345 | 36339 ft | 481 kts | 11° |
| 2026-05-06 08:56 | -19.90476 | 121.91696 | 35865 ft | 477 kts | 11° |
| 2026-05-06 08:56 | -19.87417 | 121.93036 | 35432 ft | 473 kts | 11° |
| 2026-05-06 08:56 | -19.84384 | 121.94363 | 34998 ft | 469 kts | 11° |
| 2026-05-06 08:56 | -19.81371 | 121.95678 | 34550 ft | 467 kts | 11° |
| 2026-05-06 08:57 | -19.78368 | 121.96986 | 34101 ft | 465 kts | 11° |
| 2026-05-06 08:57 | -19.75419 | 121.98270 | 33623 ft | 463 kts | 11° |
| 2026-05-06 08:57 | -19.72450 | 121.99563 | 33160 ft | 459 kts | 11° |
| 2026-05-06 08:57 | -19.69501 | 122.00848 | 32711 ft | 456 kts | 11° |
| 2026-05-06 08:58 | -19.66576 | 122.02122 | 32274 ft | 453 kts | 11° |
| 2026-05-06 08:58 | -19.63671 | 122.03387 | 31847 ft | 449 kts | 12° |
| 2026-05-06 08:58 | -19.60782 | 122.04644 | 31424 ft | 446 kts | 12° |
| 2026-05-06 08:58 | -19.57920 | 122.05889 | 30978 ft | 442 kts | 12° |
| 2026-05-06 08:59 | -19.55074 | 122.07126 | 30576 ft | 439 kts | 12° |
| 2026-05-06 08:59 | -19.52261 | 122.08348 | 30170 ft | 436 kts | 12° |
| 2026-05-06 08:59 | -19.49465 | 122.09563 | 29704 ft | 433 kts | 12° |
| 2026-05-06 08:59 | -19.46690 | 122.10767 | 29243 ft | 428 kts | 13° |
| 2026-05-06 09:00 | -19.43946 | 122.11959 | 28771 ft | 424 kts | 13° |
| 2026-05-06 09:00 | -19.41266 | 122.13123 | 28331 ft | 419 kts | 13° |
| 2026-05-06 09:00 | -19.38580 | 122.14289 | 27890 ft | 415 kts | 13° |
| 2026-05-06 09:00 | -19.35921 | 122.15442 | 27455 ft | 411 kts | 13° |
| 2026-05-06 09:01 | -19.33288 | 122.16582 | 27025 ft | 407 kts | 13° |
| 2026-05-06 09:01 | -19.30678 | 122.17713 | 26595 ft | 403 kts | 13° |
| 2026-05-06 09:01 | -19.28099 | 122.18829 | 26173 ft | 399 kts | 13° |
| 2026-05-06 09:01 | -19.25537 | 122.19938 | 25735 ft | 396 kts | 13° |
| 2026-05-06 09:02 | -19.23001 | 122.21035 | 25324 ft | 392 kts | 13° |
| 2026-05-06 09:02 | -19.20477 | 122.22127 | 24904 ft | 390 kts | 14° |
| 2026-05-06 09:02 | -19.17975 | 122.23208 | 24464 ft | 387 kts | 14° |
| 2026-05-06 09:02 | -19.15482 | 122.24285 | 24038 ft | 385 kts | 14° |
| 2026-05-06 09:03 | -19.13006 | 122.25355 | 23591 ft | 383 kts | 14° |
| 2026-05-06 09:03 | -19.10545 | 122.26418 | 23100 ft | 381 kts | 14° |
| 2026-05-06 09:03 | -19.08100 | 122.27474 | 22635 ft | 378 kts | 15° |
| 2026-05-06 09:03 | -19.05681 | 122.28520 | 22185 ft | 374 kts | 15° |
| 2026-05-06 09:04 | -19.03287 | 122.29553 | 21760 ft | 370 kts | 15° |
| 2026-05-06 09:04 | -19.00946 | 122.30564 | 21345 ft | 366 kts | 15° |
| 2026-05-06 09:04 | -18.98595 | 122.31578 | 20928 ft | 363 kts | 16° |
| 2026-05-06 09:04 | -18.96260 | 122.32544 | 20485 ft | 356 kts | 11° |
| 2026-05-06 09:05 | -18.93872 | 122.33059 | 20078 ft | 345 kts | 359° |
| 2026-05-06 09:05 | -18.91510 | 122.33073 | 19670 ft | 335 kts | 349° |
| 2026-05-06 09:05 | -18.89193 | 122.32865 | 19272 ft | 332 kts | 349° |
| 2026-05-06 09:05 | -18.86901 | 122.32630 | 18851 ft | 330 kts | 349° |
| 2026-05-06 09:06 | -18.84617 | 122.32391 | 18428 ft | 329 kts | 349° |
| 2026-05-06 09:06 | -18.82337 | 122.32156 | 17972 ft | 328 kts | 349° |
| 2026-05-06 09:06 | -18.80069 | 122.31928 | 17526 ft | 326 kts | 350° |
| 2026-05-06 09:06 | -18.77814 | 122.31706 | 17091 ft | 324 kts | 350° |
| 2026-05-06 09:07 | -18.75581 | 122.31488 | 16677 ft | 321 kts | 350° |
| 2026-05-06 09:07 | -18.73363 | 122.31274 | 16269 ft | 319 kts | 351° |
| 2026-05-06 09:07 | -18.71162 | 122.31062 | 15865 ft | 316 kts | 351° |
| 2026-05-06 09:07 | -18.68979 | 122.30853 | 15461 ft | 314 kts | 351° |
| 2026-05-06 09:08 | -18.66808 | 122.30645 | 15043 ft | 312 kts | 351° |
| 2026-05-06 09:08 | -18.64649 | 122.30438 | 14640 ft | 311 kts | 352° |
| 2026-05-06 09:08 | -18.62527 | 122.30235 | 14247 ft | 309 kts | 352° |
| 2026-05-06 09:08 | -18.60382 | 122.30030 | 13831 ft | 309 kts | 352° |
| 2026-05-06 09:09 | -18.58240 | 122.29826 | 13365 ft | 308 kts | 352° |
| 2026-05-06 09:09 | -18.56110 | 122.29623 | 12943 ft | 306 kts | 353° |
| 2026-05-06 09:09 | -18.53997 | 122.29421 | 12526 ft | 304 kts | 352° |
| 2026-05-06 09:09 | -18.51900 | 122.29222 | 12114 ft | 302 kts | 353° |
| 2026-05-06 09:10 | -18.49809 | 122.29022 | 11702 ft | 300 kts | 353° |
| 2026-05-06 09:10 | -18.47737 | 122.28825 | 11287 ft | 298 kts | 353° |
| 2026-05-06 09:10 | -18.45673 | 122.28628 | 10891 ft | 296 kts | 353° |
| 2026-05-06 09:10 | -18.43624 | 122.28433 | 10498 ft | 295 kts | 353° |
| 2026-05-06 09:11 | -18.41587 | 122.28238 | 10114 ft | 292 kts | 354° |
| 2026-05-06 09:11 | -18.39601 | 122.28050 | 9920 ft | 283 kts | 354° |
| 2026-05-06 09:11 | -18.37638 | 122.27863 | 9525 ft | 282 kts | 354° |
| 2026-05-06 09:11 | -18.35688 | 122.27677 | 9145 ft | 280 kts | 354° |
| 2026-05-06 09:12 | -18.33781 | 122.27496 | 8773 ft | 278 kts | 354° |
| 2026-05-06 09:12 | -18.31858 | 122.27313 | 8410 ft | 276 kts | 354° |
| 2026-05-06 09:12 | -18.29949 | 122.27131 | 8045 ft | 275 kts | 354° |
| 2026-05-06 09:12 | -18.28048 | 122.26950 | 7680 ft | 273 kts | 354° |
| 2026-05-06 09:13 | -18.26156 | 122.26770 | 7313 ft | 272 kts | 354° |
| 2026-05-06 09:13 | -18.24267 | 122.26591 | 6954 ft | 271 kts | 354° |
| 2026-05-06 09:13 | -18.22386 | 122.26412 | 6589 ft | 271 kts | 354° |
| 2026-05-06 09:13 | -18.20509 | 122.26238 | 6207 ft | 270 kts | 355° |
| 2026-05-06 09:14 | -18.18637 | 122.26128 | 5839 ft | 269 kts | 0° |
| 2026-05-06 09:14 | -18.16794 | 122.26288 | 5455 ft | 261 kts | 9° |
| 2026-05-06 09:14 | -18.15054 | 122.26718 | 5110 ft | 253 kts | 17° |
| 2026-05-06 09:14 | -18.13429 | 122.27357 | 4778 ft | 246 kts | 24° |
| 2026-05-06 09:15 | -18.11926 | 122.28150 | 4478 ft | 235 kts | 29° |
| 2026-05-06 09:15 | -18.10595 | 122.29032 | 4205 ft | 222 kts | 35° |
| 2026-05-06 09:15 | -18.09430 | 122.29981 | 4088 ft | 202 kts | 40° |
| 2026-05-06 09:15 | -18.08456 | 122.30936 | 3979 ft | 181 kts | 45° |
| 2026-05-06 09:16 | -18.07631 | 122.31887 | 3914 ft | 171 kts | 49° |
| 2026-05-06 09:16 | -18.06898 | 122.32851 | 3858 ft | 165 kts | 53° |
| 2026-05-06 09:16 | -18.06252 | 122.33764 | 3675 ft | 149 kts | 51° |
| 2026-05-06 09:16 | -18.05632 | 122.34578 | 3518 ft | 140 kts | 42° |
| 2026-05-06 09:17 | -18.04858 | 122.35169 | 3312 ft | 134 kts | 28° |
| 2026-05-06 09:17 | -18.04034 | 122.35597 | 3139 ft | 134 kts | 19° |
| 2026-05-06 09:17 | -18.03141 | 122.35888 | 2954 ft | 135 kts | 10° |
| 2026-05-06 09:17 | -18.02229 | 122.36007 | 2673 ft | 131 kts | 0° |
| 2026-05-06 09:18 | -18.01342 | 122.35947 | 2409 ft | 124 kts | 347° |
| 2026-05-06 09:18 | -18.00511 | 122.35690 | 2258 ft | 125 kts | 336° |
| 2026-05-06 09:18 | -17.99736 | 122.35273 | 2197 ft | 125 kts | 331° |
| 2026-05-06 09:18 | -17.98997 | 122.34778 | 2126 ft | 127 kts | 321° |
| 2026-05-06 09:19 | -17.98372 | 122.34103 | 2003 ft | 130 kts | 311° |
| 2026-05-06 09:19 | -17.97844 | 122.33329 | 1790 ft | 131 kts | 301° |
| 2026-05-06 09:19 | -17.97505 | 122.32450 | 1573 ft | 129 kts | 293° |
| 2026-05-06 09:19 | -17.97190 | 122.31566 | 1393 ft | 129 kts | 291° |
| 2026-05-06 09:20 | -17.96967 | 122.30658 | 1300 ft | 129 kts | 285° |
| 2026-05-06 09:20 | -17.96777 | 122.29749 | 1224 ft | 129 kts | 287° |
| 2026-05-06 09:20 | -17.96552 | 122.28820 | 1076 ft | 132 kts | 288° |
| 2026-05-06 09:20 | -17.96309 | 122.27886 | 917 ft | 136 kts | 289° |
| 2026-05-06 09:21 | -17.96035 | 122.26952 | 663 ft | 126 kts | 288° |
| 2026-05-06 09:21 | -17.95767 | 122.26076 | 495 ft | 129 kts | 287° |
| 2026-05-06 09:21 | -17.95519 | 122.25161 | 334 ft | 129 kts | 283° |
| 2026-05-06 09:21 | -17.95286 | 122.24253 | 203 ft | 129 kts | 286° |
| 2026-05-06 09:22 | -17.95044 | 122.23367 | 35 ft | 118 kts | 286° |
| 2026-05-06 09:22 | -17.94859 | 122.22666 | 54 ft | 78 kts | 285° |
| 2026-05-06 09:22 | -17.94752 | 122.22264 | 50 ft | 36 kts | 285° |
| 2026-05-06 09:22 | -17.94712 | 122.22114 | 59 ft | 19 kts | 285° |
| 2026-05-06 09:23 | -17.94665 | 122.21933 | 53 ft | 28 kts | 285° |
| 2026-05-06 09:23 | -17.94614 | 122.21741 | 60 ft | 26 kts | 285° |
| 2026-05-06 09:23 | -17.94598 | 122.21580 | 59 ft | 14 kts | 284° |
| 2026-05-06 09:23 | -17.94572 | 122.21603 | 60 ft | 10 kts | 104° |
| 2026-05-06 09:24 | -17.94604 | 122.21729 | 53 ft | 27 kts | 105° |
| 2026-05-06 09:24 | -17.94676 | 122.21984 | 53 ft | 44 kts | 106° |
| 2026-05-06 09:24 | -17.94759 | 122.22295 | 53 ft | 44 kts | 104° |
| 2026-05-06 09:24 | -17.94837 | 122.22594 | 50 ft | 36 kts | 106° |
| 2026-05-06 09:25 | -17.94813 | 122.22689 | 53 ft | 14 kts | 19° |
| 2026-05-06 09:25 | -17.94798 | 122.22749 | 47 ft | 10 kts | 105° |
| 2026-05-06 09:25 | -17.94822 | 122.22839 | 48 ft | 16 kts | 105° |
| 2026-05-06 09:25 | -17.94855 | 122.22964 | 42 ft | 19 kts | 105° |
| 2026-05-06 09:26 | -17.94895 | 122.23106 | 39 ft | 24 kts | 107° |
| 2026-05-06 09:26 | -17.94941 | 122.23307 | 32 ft | 30 kts | 104° |
| 2026-05-06 09:26 | -17.94981 | 122.23412 | 29 ft | 8 kts | 161° |
| 2026-05-06 09:26 | -17.95038 | 122.23405 | 33 ft | 9 kts | 196° |
| 2026-05-06 09:27 | -17.95107 | 122.23382 | 35 ft | 12 kts | 197° |
| 2026-05-06 09:27 | -17.95173 | 122.23358 | 36 ft | 8 kts | 211° |
| 2026-05-06 09:27 | -17.95201 | 122.23309 | 34 ft | 8 kts | 224° |
| 2026-05-06 09:27 | -17.95264 | 122.23287 | 36 ft | 12 kts | 193° |
| 2026-05-06 09:28 | -17.95332 | 122.23278 | 35 ft | 6 kts | 131° |
| 2026-05-06 09:28 | -17.95320 | 122.23301 | 36 ft | 5 kts | 50° |
| 2026-05-06 09:28 | -17.95312 | 122.23323 | 35 ft | 0 kts | 70° |